sensor_id;sensor_type;location;lat;lon;timestamp;P1;durP1;ratioP1;P2;durP2;ratioP2
49051;SDS011;34866;48.670;18.260;2022-09-09T00:06:21;1.85;;;0.80;;
49051;SDS011;34866;48.670;18.260;2022-09-09T00:09:36;2.30;;;0.82;;
49051;SDS011;34866;48.670;18.260;2022-09-09T00:17:09;4.97;;;1.02;;
49051;SDS011;34866;48.670;18.260;2022-09-09T00:27:30;1.25;;;0.57;;
49051;SDS011;34866;48.670;18.260;2022-09-09T00:36:50;2.58;;;0.88;;
49051;SDS011;34866;48.670;18.260;2022-09-09T00:40:02;2.90;;;1.08;;
49051;SDS011;34866;48.670;18.260;2022-09-09T00:46:56;2.03;;;0.85;;
49051;SDS011;34866;48.670;18.260;2022-09-09T01:04:03;1.75;;;0.85;;
49051;SDS011;34866;48.670;18.260;2022-09-09T01:10:23;5.25;;;1.10;;
49051;SDS011;34866;48.670;18.260;2022-09-09T01:13:28;5.13;;;1.30;;
49051;SDS011;34866;48.670;18.260;2022-09-09T01:16:56;2.13;;;1.08;;
49051;SDS011;34866;48.670;18.260;2022-09-09T01:43:35;3.13;;;1.33;;
49051;SDS011;34866;48.670;18.260;2022-09-09T01:50:14;3.03;;;1.20;;
49051;SDS011;34866;48.670;18.260;2022-09-09T02:00:26;3.97;;;1.13;;
49051;SDS011;34866;48.670;18.260;2022-09-09T02:07:30;3.58;;;1.70;;
49051;SDS011;34866;48.670;18.260;2022-09-09T02:11:16;2.15;;;1.02;;
49051;SDS011;34866;48.670;18.260;2022-09-09T02:17:37;2.72;;;1.38;;
49051;SDS011;34866;48.670;18.260;2022-09-09T02:20:43;2.50;;;1.20;;
49051;SDS011;34866;48.670;18.260;2022-09-09T02:26:53;2.33;;;1.17;;
49051;SDS011;34866;48.670;18.260;2022-09-09T02:36:50;2.45;;;1.20;;
49051;SDS011;34866;48.670;18.260;2022-09-09T02:43:03;3.30;;;1.20;;
49051;SDS011;34866;48.670;18.260;2022-09-09T02:46:54;2.60;;;1.25;;
49051;SDS011;34866;48.670;18.260;2022-09-09T02:59:39;3.67;;;1.40;;
49051;SDS011;34866;48.670;18.260;2022-09-09T03:09:25;4.75;;;1.23;;
49051;SDS011;34866;48.670;18.260;2022-09-09T03:19:12;3.78;;;1.77;;
49051;SDS011;34866;48.670;18.260;2022-09-09T03:31:46;4.43;;;2.10;;
49051;SDS011;34866;48.670;18.260;2022-09-09T03:40:51;3.58;;;1.70;;
49051;SDS011;34866;48.670;18.260;2022-09-09T03:43:29;13.70;;;2.30;;
49051;SDS011;34866;48.670;18.260;2022-09-09T03:46:09;5.40;;;1.90;;
49051;SDS011;34866;48.670;18.260;2022-09-09T03:49:02;4.20;;;1.80;;
49051;SDS011;34866;48.670;18.260;2022-09-09T03:51:53;6.55;;;2.10;;
49051;SDS011;34866;48.670;18.260;2022-09-09T03:57:11;4.35;;;2.05;;
49051;SDS011;34866;48.670;18.260;2022-09-09T04:00:12;3.85;;;1.90;;
49051;SDS011;34866;48.670;18.260;2022-09-09T04:15:33;5.20;;;2.33;;
49051;SDS011;34866;48.670;18.260;2022-09-09T04:18:02;5.47;;;2.25;;
49051;SDS011;34866;48.670;18.260;2022-09-09T04:20:56;4.80;;;2.30;;
49051;SDS011;34866;48.670;18.260;2022-09-09T04:23:26;3.90;;;2.13;;
49051;SDS011;34866;48.670;18.260;2022-09-09T04:29:10;4.50;;;2.28;;
49051;SDS011;34866;48.670;18.260;2022-09-09T04:31:58;5.35;;;2.60;;
49051;SDS011;34866;48.670;18.260;2022-09-09T04:34:47;6.88;;;2.33;;
49051;SDS011;34866;48.670;18.260;2022-09-09T04:37:17;5.72;;;2.70;;
49051;SDS011;34866;48.670;18.260;2022-09-09T04:40:11;4.90;;;2.25;;
49051;SDS011;34866;48.670;18.260;2022-09-09T04:43:40;7.97;;;3.50;;
49051;SDS011;34866;48.670;18.260;2022-09-09T04:46:08;6.35;;;2.42;;
49051;SDS011;34866;48.670;18.260;2022-09-09T04:49:14;4.45;;;2.33;;
49051;SDS011;34866;48.670;18.260;2022-09-09T04:51:45;10.18;;;2.75;;
49051;SDS011;34866;48.670;18.260;2022-09-09T04:54:13;7.55;;;3.00;;
49051;SDS011;34866;48.670;18.260;2022-09-09T04:56:51;7.03;;;2.80;;
49051;SDS011;34866;48.670;18.260;2022-09-09T04:59:38;4.78;;;2.60;;
49051;SDS011;34866;48.670;18.260;2022-09-09T05:02:05;7.38;;;2.80;;
49051;SDS011;34866;48.670;18.260;2022-09-09T05:05:15;7.35;;;3.20;;
49051;SDS011;34866;48.670;18.260;2022-09-09T05:08:03;10.00;;;2.60;;
49051;SDS011;34866;48.670;18.260;2022-09-09T05:10:38;7.40;;;1.88;;
49051;SDS011;34866;48.670;18.260;2022-09-09T05:13:08;6.03;;;2.40;;
49051;SDS011;34866;48.670;18.260;2022-09-09T05:15:33;5.70;;;2.50;;
49051;SDS011;34866;48.670;18.260;2022-09-09T05:18:03;10.65;;;2.60;;
49051;SDS011;34866;48.670;18.260;2022-09-09T05:20:29;4.18;;;2.08;;
49051;SDS011;34866;48.670;18.260;2022-09-09T05:23:01;8.52;;;3.15;;
49051;SDS011;34866;48.670;18.260;2022-09-09T05:25:35;4.65;;;2.15;;
49051;SDS011;34866;48.670;18.260;2022-09-09T05:28:11;7.43;;;3.05;;
49051;SDS011;34866;48.670;18.260;2022-09-09T05:31:25;7.05;;;3.40;;
49051;SDS011;34866;48.670;18.260;2022-09-09T05:41:21;6.13;;;2.50;;
49051;SDS011;34866;48.670;18.260;2022-09-09T05:44:28;6.07;;;2.53;;
49051;SDS011;34866;48.670;18.260;2022-09-09T05:51:24;21.67;;;2.90;;
49051;SDS011;34866;48.670;18.260;2022-09-09T06:05:06;5.80;;;2.40;;
49051;SDS011;34866;48.670;18.260;2022-09-09T06:15:54;5.40;;;2.63;;
49051;SDS011;34866;48.670;18.260;2022-09-09T06:22:47;4.75;;;2.53;;
49051;SDS011;34866;48.670;18.260;2022-09-09T06:26:20;5.15;;;2.65;;
49051;SDS011;34866;48.670;18.260;2022-09-09T06:32:38;5.45;;;2.80;;
49051;SDS011;34866;48.670;18.260;2022-09-09T06:38:29;5.13;;;2.92;;
49051;SDS011;34866;48.670;18.260;2022-09-09T06:44:37;6.97;;;2.30;;
49051;SDS011;34866;48.670;18.260;2022-09-09T06:51:08;6.57;;;2.80;;
49051;SDS011;34866;48.670;18.260;2022-09-09T06:54:17;5.03;;;2.53;;
49051;SDS011;34866;48.670;18.260;2022-09-09T06:56:52;6.18;;;3.13;;
49051;SDS011;34866;48.670;18.260;2022-09-09T07:03:26;7.65;;;3.17;;
49051;SDS011;34866;48.670;18.260;2022-09-09T07:13:04;4.93;;;2.75;;
49051;SDS011;34866;48.670;18.260;2022-09-09T07:22:54;7.78;;;3.70;;
49051;SDS011;34866;48.670;18.260;2022-09-09T07:33:27;6.80;;;3.03;;
49051;SDS011;34866;48.670;18.260;2022-09-09T07:42:57;5.30;;;2.50;;
49051;SDS011;34866;48.670;18.260;2022-09-09T07:56:41;3.65;;;1.55;;
49051;SDS011;34866;48.670;18.260;2022-09-09T08:07:22;3.60;;;2.00;;
49051;SDS011;34866;48.670;18.260;2022-09-09T08:14:28;6.03;;;2.17;;
49051;SDS011;34866;48.670;18.260;2022-09-09T08:24:00;3.20;;;1.50;;
49051;SDS011;34866;48.670;18.260;2022-09-09T08:33:41;3.10;;;1.80;;
49051;SDS011;34866;48.670;18.260;2022-09-09T08:40:26;3.67;;;1.65;;
49051;SDS011;34866;48.670;18.260;2022-09-09T08:43:59;3.50;;;1.63;;
49051;SDS011;34866;48.670;18.260;2022-09-09T08:54:33;3.40;;;1.67;;
49051;SDS011;34866;48.670;18.260;2022-09-09T08:57:57;3.72;;;1.80;;
49051;SDS011;34866;48.670;18.260;2022-09-09T09:23:21;5.60;;;1.20;;
49051;SDS011;34866;48.670;18.260;2022-09-09T09:29:37;3.95;;;1.20;;
49051;SDS011;34866;48.670;18.260;2022-09-09T09:38:39;2.58;;;0.90;;
49051;SDS011;34866;48.670;18.260;2022-09-09T09:48:31;1.77;;;0.95;;
49051;SDS011;34866;48.670;18.260;2022-09-09T10:00:48;2.70;;;0.82;;
49051;SDS011;34866;48.670;18.260;2022-09-09T10:03:51;4.00;;;0.70;;
49051;SDS011;34866;48.670;18.260;2022-09-09T10:06:45;1.40;;;0.70;;
49051;SDS011;34866;48.670;18.260;2022-09-09T10:36:24;3.08;;;0.80;;
49051;SDS011;34866;48.670;18.260;2022-09-09T10:42:40;2.40;;;0.68;;
49051;SDS011;34866;48.670;18.260;2022-09-09T10:45:29;1.33;;;0.68;;
49051;SDS011;34866;48.670;18.260;2022-09-09T11:14:10;1.65;;;0.63;;
49051;SDS011;34866;48.670;18.260;2022-09-09T11:16:50;2.13;;;0.70;;
49051;SDS011;34866;48.670;18.260;2022-09-09T11:22:33;1.55;;;0.73;;
49051;SDS011;34866;48.670;18.260;2022-09-09T11:26:04;4.20;;;0.70;;
49051;SDS011;34866;48.670;18.260;2022-09-09T11:43:11;2.67;;;1.10;;
49051;SDS011;34866;48.670;18.260;2022-09-09T11:46:14;1.85;;;0.85;;
49051;SDS011;34866;48.670;18.260;2022-09-09T12:19:15;2.65;;;0.80;;
49051;SDS011;34866;48.670;18.260;2022-09-09T12:28:21;2.63;;;1.02;;
49051;SDS011;34866;48.670;18.260;2022-09-09T12:40:30;4.28;;;1.60;;
49051;SDS011;34866;48.670;18.260;2022-09-09T12:43:18;4.18;;;1.30;;
49051;SDS011;34866;48.670;18.260;2022-09-09T12:45:56;3.08;;;1.30;;
49051;SDS011;34866;48.670;18.260;2022-09-09T12:48:32;2.13;;;0.90;;
49051;SDS011;34866;48.670;18.260;2022-09-09T12:51:03;2.03;;;0.90;;
49051;SDS011;34866;48.670;18.260;2022-09-09T12:53:35;2.00;;;0.93;;
49051;SDS011;34866;48.670;18.260;2022-09-09T12:56:21;2.05;;;1.10;;
49051;SDS011;34866;48.670;18.260;2022-09-09T12:58:51;2.38;;;0.95;;
49051;SDS011;34866;48.670;18.260;2022-09-09T13:01:24;2.42;;;1.10;;
49051;SDS011;34866;48.670;18.260;2022-09-09T13:03:58;2.05;;;1.05;;
49051;SDS011;34866;48.670;18.260;2022-09-09T13:06:31;1.33;;;0.68;;
49051;SDS011;34866;48.670;18.260;2022-09-09T13:09:01;2.60;;;1.13;;
49051;SDS011;34866;48.670;18.260;2022-09-09T13:11:47;3.38;;;1.08;;
49051;SDS011;34866;48.670;18.260;2022-09-09T13:14:42;8.25;;;0.90;;
49051;SDS011;34866;48.670;18.260;2022-09-09T13:20:39;4.10;;;0.90;;
49051;SDS011;34866;48.670;18.260;2022-09-09T13:25:55;1.67;;;0.80;;
49051;SDS011;34866;48.670;18.260;2022-09-09T13:28:28;6.15;;;1.85;;
49051;SDS011;34866;48.670;18.260;2022-09-09T13:33:36;7.47;;;1.05;;
49051;SDS011;34866;48.670;18.260;2022-09-09T13:36:09;1.67;;;0.80;;
49051;SDS011;34866;48.670;18.260;2022-09-09T13:41:24;6.05;;;1.05;;
49051;SDS011;34866;48.670;18.260;2022-09-09T13:44:02;2.00;;;0.80;;
49051;SDS011;34866;48.670;18.260;2022-09-09T13:47:02;2.42;;;0.82;;
49051;SDS011;34866;48.670;18.260;2022-09-09T13:49:29;1.77;;;0.90;;
49051;SDS011;34866;48.670;18.260;2022-09-09T13:52:09;3.47;;;0.90;;
49051;SDS011;34866;48.670;18.260;2022-09-09T13:54:36;3.60;;;1.10;;
49051;SDS011;34866;48.670;18.260;2022-09-09T13:57:23;2.63;;;1.20;;
49051;SDS011;34866;48.670;18.260;2022-09-09T13:59:51;1.65;;;0.93;;
49051;SDS011;34866;48.670;18.260;2022-09-09T14:02:19;2.75;;;1.30;;
49051;SDS011;34866;48.670;18.260;2022-09-09T14:04:46;2.03;;;0.85;;
49051;SDS011;34866;48.670;18.260;2022-09-09T14:07:32;2.17;;;0.93;;
49051;SDS011;34866;48.670;18.260;2022-09-09T14:09:58;2.17;;;1.00;;
49051;SDS011;34866;48.670;18.260;2022-09-09T14:12:31;2.55;;;1.00;;
49051;SDS011;34866;48.670;18.260;2022-09-09T14:15:01;5.15;;;1.23;;
49051;SDS011;34866;48.670;18.260;2022-09-09T14:17:29;2.90;;;1.05;;
49051;SDS011;34866;48.670;18.260;2022-09-09T14:19:56;2.00;;;0.88;;
49051;SDS011;34866;48.670;18.260;2022-09-09T14:22:23;3.60;;;0.95;;
49051;SDS011;34866;48.670;18.260;2022-09-09T14:24:49;2.28;;;1.10;;
49051;SDS011;34866;48.670;18.260;2022-09-09T14:27:15;3.00;;;1.17;;
49051;SDS011;34866;48.670;18.260;2022-09-09T14:29:45;2.70;;;1.00;;
49051;SDS011;34866;48.670;18.260;2022-09-09T14:32:11;3.47;;;1.00;;
49051;SDS011;34866;48.670;18.260;2022-09-09T14:34:37;4.07;;;1.08;;
49051;SDS011;34866;48.670;18.260;2022-09-09T14:37:03;2.22;;;1.10;;
49051;SDS011;34866;48.670;18.260;2022-09-09T14:39:28;2.25;;;1.13;;
49051;SDS011;34866;48.670;18.260;2022-09-09T14:41:55;8.48;;;1.73;;
49051;SDS011;34866;48.670;18.260;2022-09-09T14:44:22;2.75;;;1.30;;
49051;SDS011;34866;48.670;18.260;2022-09-09T14:46:48;8.50;;;1.45;;
49051;SDS011;34866;48.670;18.260;2022-09-09T14:49:15;2.15;;;1.13;;
49051;SDS011;34866;48.670;18.260;2022-09-09T14:51:41;3.35;;;1.58;;
49051;SDS011;34866;48.670;18.260;2022-09-09T14:54:08;3.25;;;1.33;;
49051;SDS011;34866;48.670;18.260;2022-09-09T14:56:35;1.90;;;0.90;;
49051;SDS011;34866;48.670;18.260;2022-09-09T14:59:07;2.13;;;1.08;;
49051;SDS011;34866;48.670;18.260;2022-09-09T15:01:33;2.28;;;1.27;;
49051;SDS011;34866;48.670;18.260;2022-09-09T15:04:03;4.78;;;1.42;;
49051;SDS011;34866;48.670;18.260;2022-09-09T15:06:47;7.40;;;1.20;;
49051;SDS011;34866;48.670;18.260;2022-09-09T15:09:14;3.45;;;1.02;;
49051;SDS011;34866;48.670;18.260;2022-09-09T15:11:40;3.83;;;0.82;;
49051;SDS011;34866;48.670;18.260;2022-09-09T15:14:09;3.38;;;1.30;;
49051;SDS011;34866;48.670;18.260;2022-09-09T15:16:37;1.98;;;0.93;;
49051;SDS011;34866;48.670;18.260;2022-09-09T15:19:04;1.77;;;0.85;;
49051;SDS011;34866;48.670;18.260;2022-09-09T15:21:31;4.93;;;1.23;;
49051;SDS011;34866;48.670;18.260;2022-09-09T15:23:58;3.20;;;1.08;;
49051;SDS011;34866;48.670;18.260;2022-09-09T15:26:26;2.63;;;1.27;;
49051;SDS011;34866;48.670;18.260;2022-09-09T15:28:53;7.75;;;1.60;;
49051;SDS011;34866;48.670;18.260;2022-09-09T15:31:20;2.10;;;1.00;;
49051;SDS011;34866;48.670;18.260;2022-09-09T15:33:55;2.80;;;1.23;;
49051;SDS011;34866;48.670;18.260;2022-09-09T15:36:44;3.53;;;1.30;;
49051;SDS011;34866;48.670;18.260;2022-09-09T15:39:14;13.77;;;1.25;;
49051;SDS011;34866;48.670;18.260;2022-09-09T15:41:47;2.92;;;1.30;;
49051;SDS011;34866;48.670;18.260;2022-09-09T15:44:17;2.63;;;1.10;;
49051;SDS011;34866;48.670;18.260;2022-09-09T15:46:51;2.35;;;1.10;;
49051;SDS011;34866;48.670;18.260;2022-09-09T15:49:32;2.30;;;1.10;;
49051;SDS011;34866;48.670;18.260;2022-09-09T15:51:59;2.83;;;1.20;;
49051;SDS011;34866;48.670;18.260;2022-09-09T15:55:07;3.75;;;0.80;;
49051;SDS011;34866;48.670;18.260;2022-09-09T15:57:33;20.33;;;2.22;;
49051;SDS011;34866;48.670;18.260;2022-09-09T16:00:04;2.50;;;1.05;;
49051;SDS011;34866;48.670;18.260;2022-09-09T16:02:33;3.90;;;1.00;;
49051;SDS011;34866;48.670;18.260;2022-09-09T16:05:03;2.50;;;1.15;;
49051;SDS011;34866;48.670;18.260;2022-09-09T16:07:32;2.65;;;1.02;;
49051;SDS011;34866;48.670;18.260;2022-09-09T16:10:00;2.30;;;1.10;;
49051;SDS011;34866;48.670;18.260;2022-09-09T16:12:26;2.60;;;1.10;;
49051;SDS011;34866;48.670;18.260;2022-09-09T16:14:54;4.95;;;1.00;;
49051;SDS011;34866;48.670;18.260;2022-09-09T16:17:40;3.70;;;1.30;;
49051;SDS011;34866;48.670;18.260;2022-09-09T16:20:11;3.30;;;1.15;;
49051;SDS011;34866;48.670;18.260;2022-09-09T16:22:40;7.22;;;1.20;;
49051;SDS011;34866;48.670;18.260;2022-09-09T16:25:09;3.30;;;1.02;;
49051;SDS011;34866;48.670;18.260;2022-09-09T16:28:04;3.53;;;1.20;;
49051;SDS011;34866;48.670;18.260;2022-09-09T16:31:17;2.97;;;1.10;;
49051;SDS011;34866;48.670;18.260;2022-09-09T16:34:06;3.95;;;1.30;;
49051;SDS011;34866;48.670;18.260;2022-09-09T16:37:00;5.10;;;1.13;;
49051;SDS011;34866;48.670;18.260;2022-09-09T16:39:29;2.08;;;0.80;;
49051;SDS011;34866;48.670;18.260;2022-09-09T16:42:22;3.22;;;1.35;;
49051;SDS011;34866;48.670;18.260;2022-09-09T16:44:51;2.55;;;1.23;;
49051;SDS011;34866;48.670;18.260;2022-09-09T16:47:17;8.02;;;1.33;;
49051;SDS011;34866;48.670;18.260;2022-09-09T16:49:46;5.63;;;1.20;;
49051;SDS011;34866;48.670;18.260;2022-09-09T16:52:13;2.58;;;0.85;;
49051;SDS011;34866;48.670;18.260;2022-09-09T16:54:39;4.68;;;0.90;;
49051;SDS011;34866;48.670;18.260;2022-09-09T16:57:07;2.75;;;1.10;;
49051;SDS011;34866;48.670;18.260;2022-09-09T16:59:33;2.83;;;1.17;;
49051;SDS011;34866;48.670;18.260;2022-09-09T17:02:00;3.35;;;1.20;;
49051;SDS011;34866;48.670;18.260;2022-09-09T17:04:28;2.75;;;1.08;;
49051;SDS011;34866;48.670;18.260;2022-09-09T17:06:58;2.03;;;1.00;;
49051;SDS011;34866;48.670;18.260;2022-09-09T17:09:26;4.07;;;1.00;;
49051;SDS011;34866;48.670;18.260;2022-09-09T17:11:59;3.20;;;1.30;;
49051;SDS011;34866;48.670;18.260;2022-09-09T17:14:27;6.15;;;2.03;;
49051;SDS011;34866;48.670;18.260;2022-09-09T17:18:02;3.63;;;1.63;;
49051;SDS011;34866;48.670;18.260;2022-09-09T17:20:56;5.82;;;1.90;;
49051;SDS011;34866;48.670;18.260;2022-09-09T17:24:04;7.25;;;1.70;;
49051;SDS011;34866;48.670;18.260;2022-09-09T17:26:33;3.45;;;1.38;;
49051;SDS011;34866;48.670;18.260;2022-09-09T17:29:03;3.60;;;1.30;;
49051;SDS011;34866;48.670;18.260;2022-09-09T17:31:56;5.70;;;1.42;;
49051;SDS011;34866;48.670;18.260;2022-09-09T17:34:44;3.58;;;1.27;;
49051;SDS011;34866;48.670;18.260;2022-09-09T17:37:31;3.72;;;1.73;;
49051;SDS011;34866;48.670;18.260;2022-09-09T17:40:10;8.52;;;2.22;;
49051;SDS011;34866;48.670;18.260;2022-09-09T17:42:40;6.15;;;2.42;;
49051;SDS011;34866;48.670;18.260;2022-09-09T17:45:06;9.15;;;2.28;;
49051;SDS011;34866;48.670;18.260;2022-09-09T17:47:55;6.72;;;2.60;;
49051;SDS011;34866;48.670;18.260;2022-09-09T17:50:27;3.08;;;1.58;;
49051;SDS011;34866;48.670;18.260;2022-09-09T17:53:00;3.88;;;1.70;;
49051;SDS011;34866;48.670;18.260;2022-09-09T17:55:27;4.03;;;1.73;;
49051;SDS011;34866;48.670;18.260;2022-09-09T17:58:08;6.32;;;1.60;;
49051;SDS011;34866;48.670;18.260;2022-09-09T18:00:35;6.15;;;1.92;;
49051;SDS011;34866;48.670;18.260;2022-09-09T18:03:04;6.47;;;2.40;;
49051;SDS011;34866;48.670;18.260;2022-09-09T18:05:35;4.22;;;1.75;;
49051;SDS011;34866;48.670;18.260;2022-09-09T18:08:02;6.63;;;2.55;;
49051;SDS011;34866;48.670;18.260;2022-09-09T18:10:34;6.07;;;2.63;;
49051;SDS011;34866;48.670;18.260;2022-09-09T18:13:01;9.30;;;2.38;;
49051;SDS011;34866;48.670;18.260;2022-09-09T18:15:47;8.82;;;2.78;;
49051;SDS011;34866;48.670;18.260;2022-09-09T18:18:15;5.43;;;2.55;;
49051;SDS011;34866;48.670;18.260;2022-09-09T18:21:07;10.13;;;2.22;;
49051;SDS011;34866;48.670;18.260;2022-09-09T18:23:58;8.05;;;2.70;;
49051;SDS011;34866;48.670;18.260;2022-09-09T18:27:00;5.00;;;2.17;;
49051;SDS011;34866;48.670;18.260;2022-09-09T18:32:13;4.57;;;2.10;;
49051;SDS011;34866;48.670;18.260;2022-09-09T18:34:50;9.00;;;2.40;;
49051;SDS011;34866;48.670;18.260;2022-09-09T18:37:19;6.47;;;2.55;;
49051;SDS011;34866;48.670;18.260;2022-09-09T18:39:45;7.75;;;2.40;;
49051;SDS011;34866;48.670;18.260;2022-09-09T18:42:11;5.13;;;2.40;;
49051;SDS011;34866;48.670;18.260;2022-09-09T18:47:25;6.00;;;2.88;;
49051;SDS011;34866;48.670;18.260;2022-09-09T18:50:02;5.70;;;2.72;;
49051;SDS011;34866;48.670;18.260;2022-09-09T18:52:59;6.30;;;3.00;;
49051;SDS011;34866;48.670;18.260;2022-09-09T18:55:44;7.22;;;3.20;;
49051;SDS011;34866;48.670;18.260;2022-09-09T18:58:09;7.75;;;3.22;;
49051;SDS011;34866;48.670;18.260;2022-09-09T19:00:44;7.10;;;2.75;;
49051;SDS011;34866;48.670;18.260;2022-09-09T19:03:28;7.95;;;3.47;;
49051;SDS011;34866;48.670;18.260;2022-09-09T19:06:12;8.18;;;3.25;;
49051;SDS011;34866;48.670;18.260;2022-09-09T19:08:40;5.97;;;2.90;;
49051;SDS011;34866;48.670;18.260;2022-09-09T19:11:09;4.70;;;2.60;;
49051;SDS011;34866;48.670;18.260;2022-09-09T19:13:57;6.57;;;2.35;;
49051;SDS011;34866;48.670;18.260;2022-09-09T19:17:30;5.75;;;2.45;;
49051;SDS011;34866;48.670;18.260;2022-09-09T19:20:08;7.00;;;2.28;;
49051;SDS011;34866;48.670;18.260;2022-09-09T19:22:34;7.88;;;2.17;;
49051;SDS011;34866;48.670;18.260;2022-09-09T19:25:05;6.38;;;2.20;;
49051;SDS011;34866;48.670;18.260;2022-09-09T19:27:41;5.75;;;2.17;;
49051;SDS011;34866;48.670;18.260;2022-09-09T19:30:09;6.57;;;2.90;;
49051;SDS011;34866;48.670;18.260;2022-09-09T19:32:37;7.40;;;2.53;;
49051;SDS011;34866;48.670;18.260;2022-09-09T19:35:09;5.15;;;3.10;;
49051;SDS011;34866;48.670;18.260;2022-09-09T19:37:35;4.63;;;2.08;;
49051;SDS011;34866;48.670;18.260;2022-09-09T19:40:03;6.88;;;2.22;;
49051;SDS011;34866;48.670;18.260;2022-09-09T19:42:50;5.63;;;2.55;;
49051;SDS011;34866;48.670;18.260;2022-09-09T19:45:22;5.15;;;2.47;;
49051;SDS011;34866;48.670;18.260;2022-09-09T19:47:57;4.15;;;2.05;;
49051;SDS011;34866;48.670;18.260;2022-09-09T19:50:23;4.88;;;2.42;;
49051;SDS011;34866;48.670;18.260;2022-09-09T19:52:56;5.28;;;3.08;;
49051;SDS011;34866;48.670;18.260;2022-09-09T19:55:23;5.43;;;2.75;;
49051;SDS011;34866;48.670;18.260;2022-09-09T19:57:49;6.15;;;3.05;;
49051;SDS011;34866;48.670;18.260;2022-09-09T20:00:15;5.05;;;2.42;;
49051;SDS011;34866;48.670;18.260;2022-09-09T20:02:43;6.97;;;2.90;;
49051;SDS011;34866;48.670;18.260;2022-09-09T20:05:09;7.35;;;2.75;;
49051;SDS011;34866;48.670;18.260;2022-09-09T20:07:41;6.03;;;2.60;;
49051;SDS011;34866;48.670;18.260;2022-09-09T20:10:09;5.50;;;2.65;;
49051;SDS011;34866;48.670;18.260;2022-09-09T20:12:38;5.43;;;2.63;;
49051;SDS011;34866;48.670;18.260;2022-09-09T20:15:05;8.38;;;2.45;;
49051;SDS011;34866;48.670;18.260;2022-09-09T20:17:37;4.30;;;1.98;;
49051;SDS011;34866;48.670;18.260;2022-09-09T20:20:11;7.15;;;2.35;;
49051;SDS011;34866;48.670;18.260;2022-09-09T20:23:21;4.75;;;1.73;;
49051;SDS011;34866;48.670;18.260;2022-09-09T20:25:52;5.05;;;2.30;;
49051;SDS011;34866;48.670;18.260;2022-09-09T20:28:33;6.25;;;1.95;;
49051;SDS011;34866;48.670;18.260;2022-09-09T20:31:11;3.10;;;1.67;;
49051;SDS011;34866;48.670;18.260;2022-09-09T20:33:44;4.15;;;2.15;;
49051;SDS011;34866;48.670;18.260;2022-09-09T20:39:09;3.95;;;2.15;;
49051;SDS011;34866;48.670;18.260;2022-09-09T20:42:01;5.80;;;1.95;;
49051;SDS011;34866;48.670;18.260;2022-09-09T20:44:30;8.13;;;3.00;;
49051;SDS011;34866;48.670;18.260;2022-09-09T20:46:56;3.85;;;1.88;;
49051;SDS011;34866;48.670;18.260;2022-09-09T20:49:42;5.35;;;2.10;;
49051;SDS011;34866;48.670;18.260;2022-09-09T20:52:14;4.45;;;1.60;;
49051;SDS011;34866;48.670;18.260;2022-09-09T20:54:53;3.78;;;1.58;;
49051;SDS011;34866;48.670;18.260;2022-09-09T20:57:21;2.42;;;1.38;;
49051;SDS011;34866;48.670;18.260;2022-09-09T20:59:54;6.10;;;1.60;;
49051;SDS011;34866;48.670;18.260;2022-09-09T21:02:32;5.28;;;1.60;;
49051;SDS011;34866;48.670;18.260;2022-09-09T21:05:18;7.32;;;2.10;;
49051;SDS011;34866;48.670;18.260;2022-09-09T21:07:44;4.32;;;1.42;;
49051;SDS011;34866;48.670;18.260;2022-09-09T21:10:10;5.03;;;1.48;;
49051;SDS011;34866;48.670;18.260;2022-09-09T21:12:36;4.40;;;1.23;;
49051;SDS011;34866;48.670;18.260;2022-09-09T21:15:08;3.92;;;1.55;;
49051;SDS011;34866;48.670;18.260;2022-09-09T21:17:37;4.38;;;1.40;;
49051;SDS011;34866;48.670;18.260;2022-09-09T21:20:17;3.83;;;1.30;;
49051;SDS011;34866;48.670;18.260;2022-09-09T21:22:43;4.00;;;1.45;;
49051;SDS011;34866;48.670;18.260;2022-09-09T21:25:11;3.22;;;1.58;;
49051;SDS011;34866;48.670;18.260;2022-09-09T21:27:37;5.30;;;1.27;;
49051;SDS011;34866;48.670;18.260;2022-09-09T21:30:08;3.95;;;1.65;;
49051;SDS011;34866;48.670;18.260;2022-09-09T21:32:35;5.25;;;1.65;;
49051;SDS011;34866;48.670;18.260;2022-09-09T21:35:05;3.63;;;1.75;;
49051;SDS011;34866;48.670;18.260;2022-09-09T21:37:46;3.05;;;1.50;;
49051;SDS011;34866;48.670;18.260;2022-09-09T21:40:18;3.90;;;1.83;;
49051;SDS011;34866;48.670;18.260;2022-09-09T21:42:47;4.00;;;1.67;;
49051;SDS011;34866;48.670;18.260;2022-09-09T21:45:14;7.13;;;1.73;;
49051;SDS011;34866;48.670;18.260;2022-09-09T21:47:43;5.72;;;1.77;;
49051;SDS011;34866;48.670;18.260;2022-09-09T21:50:14;5.22;;;1.77;;
49051;SDS011;34866;48.670;18.260;2022-09-09T21:52:40;5.25;;;1.67;;
49051;SDS011;34866;48.670;18.260;2022-09-09T21:55:06;4.43;;;1.50;;
49051;SDS011;34866;48.670;18.260;2022-09-09T21:57:33;8.25;;;2.47;;
49051;SDS011;34866;48.670;18.260;2022-09-09T22:00:03;4.20;;;1.95;;
49051;SDS011;34866;48.670;18.260;2022-09-09T22:02:36;6.40;;;1.60;;
49051;SDS011;34866;48.670;18.260;2022-09-09T22:05:05;5.00;;;1.80;;
49051;SDS011;34866;48.670;18.260;2022-09-09T22:07:34;4.63;;;1.90;;
49051;SDS011;34866;48.670;18.260;2022-09-09T22:10:03;4.50;;;2.03;;
49051;SDS011;34866;48.670;18.260;2022-09-09T22:12:37;4.53;;;1.77;;
49051;SDS011;34866;48.670;18.260;2022-09-09T22:15:06;4.97;;;2.00;;
49051;SDS011;34866;48.670;18.260;2022-09-09T22:17:38;4.30;;;1.85;;
49051;SDS011;34866;48.670;18.260;2022-09-09T22:20:05;5.95;;;1.83;;
49051;SDS011;34866;48.670;18.260;2022-09-09T22:22:55;3.05;;;1.33;;
49051;SDS011;34866;48.670;18.260;2022-09-09T22:25:42;3.10;;;1.48;;
49051;SDS011;34866;48.670;18.260;2022-09-09T22:28:12;4.80;;;1.90;;
49051;SDS011;34866;48.670;18.260;2022-09-09T22:30:41;4.60;;;1.60;;
49051;SDS011;34866;48.670;18.260;2022-09-09T22:33:09;3.17;;;1.50;;
49051;SDS011;34866;48.670;18.260;2022-09-09T22:35:42;2.75;;;1.30;;
49051;SDS011;34866;48.670;18.260;2022-09-09T22:38:10;4.38;;;1.48;;
49051;SDS011;34866;48.670;18.260;2022-09-09T22:40:37;3.42;;;1.48;;
49051;SDS011;34866;48.670;18.260;2022-09-09T22:43:19;2.70;;;1.15;;
49051;SDS011;34866;48.670;18.260;2022-09-09T22:45:52;4.97;;;1.95;;
49051;SDS011;34866;48.670;18.260;2022-09-09T22:48:19;4.22;;;1.58;;
49051;SDS011;34866;48.670;18.260;2022-09-09T22:50:46;5.45;;;1.50;;
49051;SDS011;34866;48.670;18.260;2022-09-09T22:53:13;3.55;;;1.15;;
49051;SDS011;34866;48.670;18.260;2022-09-09T22:55:39;7.07;;;1.80;;
49051;SDS011;34866;48.670;18.260;2022-09-09T22:58:05;3.30;;;1.40;;
49051;SDS011;34866;48.670;18.260;2022-09-09T23:00:31;3.58;;;1.10;;
49051;SDS011;34866;48.670;18.260;2022-09-09T23:03:40;3.08;;;1.50;;
49051;SDS011;34866;48.670;18.260;2022-09-09T23:06:06;4.28;;;1.50;;
49051;SDS011;34866;48.670;18.260;2022-09-09T23:09:00;4.22;;;1.88;;
49051;SDS011;34866;48.670;18.260;2022-09-09T23:11:28;4.00;;;1.50;;
49051;SDS011;34866;48.670;18.260;2022-09-09T23:13:56;4.28;;;1.50;;
49051;SDS011;34866;48.670;18.260;2022-09-09T23:16:45;3.65;;;1.48;;
49051;SDS011;34866;48.670;18.260;2022-09-09T23:19:15;2.72;;;1.30;;
49051;SDS011;34866;48.670;18.260;2022-09-09T23:21:44;6.32;;;1.67;;
49051;SDS011;34866;48.670;18.260;2022-09-09T23:24:11;3.88;;;2.08;;
49051;SDS011;34866;48.670;18.260;2022-09-09T23:26:39;3.97;;;1.38;;
49051;SDS011;34866;48.670;18.260;2022-09-09T23:29:07;5.95;;;1.77;;
49051;SDS011;34866;48.670;18.260;2022-09-09T23:31:38;5.65;;;2.08;;
49051;SDS011;34866;48.670;18.260;2022-09-09T23:34:04;3.78;;;1.38;;
49051;SDS011;34866;48.670;18.260;2022-09-09T23:36:32;3.50;;;1.75;;
49051;SDS011;34866;48.670;18.260;2022-09-09T23:38:59;4.20;;;1.40;;